createdAt,value
2023-05-25T00:01:10.278Z,11.23
2023-05-25T00:03:40.396Z,11.10
2023-05-25T00:06:07.298Z,11.27
2023-05-25T00:08:33.823Z,11.41
2023-05-25T00:11:00.263Z,11.27
2023-05-25T00:13:26.710Z,11.26
2023-05-25T00:15:53.161Z,11.17
2023-05-25T00:18:19.622Z,11.26
2023-05-25T00:20:47.436Z,11.42
2023-05-25T00:23:14.120Z,11.23
2023-05-25T00:25:40.519Z,11.30
2023-05-25T00:28:07.034Z,11.44
2023-05-25T00:30:33.507Z,11.31
2023-05-25T00:33:01.524Z,11.40
2023-05-25T00:35:28.305Z,11.17
2023-05-25T00:37:54.820Z,11.31
2023-05-25T00:40:21.955Z,11.08
2023-05-25T00:42:48.715Z,11.04
2023-05-25T00:45:15.144Z,10.91
2023-05-25T00:47:43.142Z,10.84
2023-05-25T00:50:15.031Z,10.96
2023-05-25T00:52:41.722Z,10.96
2023-05-25T00:55:11.679Z,11.01
2023-05-25T00:57:41.475Z,10.94
2023-05-25T01:00:11.511Z,10.81
2023-05-25T01:02:43.687Z,10.80
2023-05-25T01:05:12.333Z,10.85
2023-05-25T01:07:42.067Z,10.74
2023-05-25T01:10:11.256Z,10.83
2023-05-25T01:12:39.011Z,10.74
2023-05-25T01:15:05.978Z,10.61
2023-05-25T01:17:33.145Z,10.54
2023-05-25T01:20:09.547Z,10.65
2023-05-25T01:22:47.817Z,10.68
2023-05-25T01:25:21.895Z,10.63
2023-05-25T01:27:56.919Z,10.50
2023-05-25T01:30:26.004Z,10.58
2023-05-25T01:32:53.395Z,10.65
2023-05-25T01:35:21.767Z,10.66
2023-05-25T01:37:49.866Z,10.65
2023-05-25T01:40:16.404Z,10.77
2023-05-25T01:42:42.828Z,10.75
2023-05-25T01:45:10.829Z,10.82
2023-05-25T01:47:53.281Z,10.81
2023-05-25T01:50:34.020Z,10.87
2023-05-25T01:53:03.852Z,10.84
2023-05-25T01:55:37.803Z,10.76
2023-05-25T01:58:05.759Z,10.68
2023-05-25T02:00:33.287Z,10.68
2023-05-25T02:03:01.473Z,10.59
2023-05-25T02:05:28.104Z,10.28
2023-05-25T02:07:54.542Z,10.16
2023-05-25T02:10:21.008Z,10.23
2023-05-25T02:12:47.409Z,10.43
2023-05-25T02:15:15.648Z,10.37
2023-05-25T02:17:43.312Z,10.26
2023-05-25T02:20:11.329Z,10.35
2023-05-25T02:22:38.176Z,10.16
2023-05-25T02:25:04.899Z,10.28
2023-05-25T02:27:31.317Z,10.33
2023-05-25T02:29:57.730Z,10.36
2023-05-25T02:32:24.818Z,10.38
2023-05-25T02:34:51.596Z,10.49
2023-05-25T02:37:17.999Z,10.31
2023-05-25T02:39:44.422Z,10.16
2023-05-25T02:42:10.828Z,10.23
2023-05-25T02:44:37.244Z,10.30
2023-05-25T02:47:03.822Z,10.18
2023-05-25T02:49:30.335Z,10.24
2023-05-25T02:51:56.736Z,10.16
2023-05-25T02:54:23.201Z,10.33
2023-05-25T02:56:49.597Z,10.18
2023-05-25T02:59:16.008Z,10.09
2023-05-25T03:01:42.434Z,10.15
2023-05-25T03:04:08.935Z,10.12
2023-05-25T03:06:36.590Z,9.96
2023-05-25T03:09:05.122Z,9.90
2023-05-25T03:11:31.556Z,10.02
2023-05-25T03:13:58.147Z,10.10
2023-05-25T03:16:25.955Z,10.07
2023-05-25T03:18:52.484Z,10.15
2023-05-25T03:21:18.899Z,10.17
2023-05-25T03:23:45.409Z,9.94
2023-05-25T03:26:11.852Z,10.00
2023-05-25T03:28:38.257Z,9.78
2023-05-25T03:31:04.702Z,10.00
2023-05-25T03:33:31.196Z,10.02
2023-05-25T03:35:57.627Z,9.90
2023-05-25T03:38:24.045Z,10.16
2023-05-25T03:40:50.538Z,10.14
2023-05-25T03:43:17.198Z,10.18
2023-05-25T03:45:43.915Z,10.18
2023-05-25T03:48:10.503Z,10.13
2023-05-25T03:50:37.023Z,10.31
2023-05-25T03:53:03.553Z,10.36
2023-05-25T03:55:30.781Z,10.48
2023-05-25T03:57:57.200Z,10.59
2023-05-25T04:00:23.752Z,10.74
2023-05-25T04:02:50.245Z,10.71
2023-05-25T04:05:16.678Z,11.12
2023-05-25T04:07:43.088Z,10.87
2023-05-25T04:10:10.000Z,10.80
2023-05-25T04:12:37.271Z,10.89
2023-05-25T04:15:05.455Z,10.73
2023-05-25T04:17:31.881Z,10.49
2023-05-25T04:19:58.339Z,10.59
2023-05-25T04:22:24.791Z,10.64
2023-05-25T04:24:51.184Z,10.48
2023-05-25T04:27:17.605Z,10.51
2023-05-25T04:29:44.089Z,10.72
2023-05-25T04:32:10.586Z,10.48
2023-05-25T04:34:37.675Z,10.49
2023-05-25T04:37:05.506Z,10.34
2023-05-25T04:39:32.685Z,10.33
2023-05-25T04:41:59.146Z,10.21
2023-05-25T04:44:25.758Z,10.23
2023-05-25T04:46:53.626Z,10.39
2023-05-25T04:49:20.160Z,10.03
2023-05-25T04:51:46.567Z,10.41
2023-05-25T04:54:13.041Z,10.21
2023-05-25T04:56:39.450Z,10.24
2023-05-25T04:59:06.250Z,10.42
2023-05-25T05:01:34.442Z,10.65
2023-05-25T05:04:00.999Z,10.65
2023-05-25T05:06:27.504Z,10.89
2023-05-25T05:08:53.923Z,11.12
2023-05-25T05:11:20.485Z,10.99
2023-05-25T05:13:46.892Z,10.97
2023-05-25T05:16:13.322Z,10.98
2023-05-25T05:18:39.766Z,11.14
2023-05-25T05:21:06.220Z,11.20
2023-05-25T05:23:34.546Z,11.26
2023-05-25T05:26:00.986Z,11.46
2023-05-25T05:28:27.502Z,11.46
2023-05-25T05:30:54.014Z,11.24
2023-05-25T05:33:20.592Z,11.16
2023-05-25T05:35:47.074Z,11.41
2023-05-25T05:38:13.465Z,11.37
2023-05-25T05:40:39.860Z,11.77
2023-05-25T05:43:06.837Z,11.63
2023-05-25T05:45:33.242Z,12.09
2023-05-25T05:47:59.701Z,11.76
2023-05-25T05:50:26.159Z,12.01
2023-05-25T05:52:53.700Z,11.87
2023-05-25T05:55:21.022Z,12.01
2023-05-25T05:57:47.456Z,12.20
2023-05-25T06:00:14.486Z,12.26
2023-05-25T06:02:41.952Z,12.42
2023-05-25T06:05:08.930Z,12.17
2023-05-25T06:07:35.525Z,12.37
2023-05-25T06:10:02.060Z,12.79
2023-05-25T06:12:28.467Z,12.83
2023-05-25T06:14:54.902Z,12.67
2023-05-25T06:17:21.536Z,12.80
2023-05-25T06:19:48.001Z,12.93
2023-05-25T06:22:14.398Z,13.15
2023-05-25T06:24:40.920Z,12.75
2023-05-25T06:27:07.414Z,13.26
2023-05-25T06:29:34.024Z,13.31
2023-05-25T06:32:00.732Z,13.57
2023-05-25T06:34:27.220Z,13.52
2023-05-25T06:36:53.629Z,13.87
2023-05-25T06:39:20.663Z,13.79
2023-05-25T06:41:47.128Z,13.64
2023-05-25T06:44:13.536Z,13.83
2023-05-25T06:46:40.101Z,14.05
2023-05-25T06:49:06.679Z,14.17
2023-05-25T06:51:33.429Z,14.30
2023-05-25T06:53:59.831Z,14.52
2023-05-25T06:56:26.388Z,14.30
2023-05-25T06:58:52.816Z,14.28
2023-05-25T07:01:19.368Z,14.46
2023-05-25T07:03:45.904Z,14.51
2023-05-25T07:06:12.874Z,14.85
2023-05-25T07:08:39.462Z,14.78
2023-05-25T07:11:06.075Z,14.72
2023-05-25T07:13:32.489Z,14.84
2023-05-25T07:15:58.918Z,14.97
2023-05-25T07:18:26.292Z,14.74
2023-05-25T07:20:53.475Z,15.02
2023-05-25T07:23:20.101Z,14.90
2023-05-25T07:25:46.773Z,15.04
2023-05-25T07:28:13.348Z,15.14
2023-05-25T07:30:40.956Z,15.47
2023-05-25T07:33:07.473Z,15.47
2023-05-25T07:35:35.412Z,15.44
2023-05-25T07:38:05.124Z,15.22
2023-05-25T07:40:31.544Z,15.47
2023-05-25T07:42:58.025Z,15.34
2023-05-25T07:45:24.513Z,15.72
2023-05-25T07:47:51.173Z,15.66
2023-05-25T07:50:17.901Z,15.62
2023-05-25T07:52:44.353Z,15.56
2023-05-25T07:55:11.216Z,15.42
2023-05-25T07:57:37.696Z,15.65
2023-05-25T08:00:10.998Z,15.96
2023-05-25T08:02:37.553Z,16.12
2023-05-25T08:05:06.082Z,16.29
2023-05-25T08:07:33.615Z,16.26
2023-05-25T08:10:00.467Z,16.58
2023-05-25T08:12:45.864Z,16.39
2023-05-25T08:15:16.516Z,16.30
2023-05-25T08:17:43.096Z,16.67
2023-05-25T08:20:10.334Z,17.00
2023-05-25T08:22:36.908Z,16.71
2023-05-25T08:25:04.584Z,17.03
2023-05-25T08:27:32.789Z,17.19
2023-05-25T08:30:01.095Z,17.09
2023-05-25T08:32:27.524Z,17.23
2023-05-25T08:34:53.975Z,16.75
2023-05-25T08:37:23.304Z,16.70
2023-05-25T08:39:49.797Z,16.58
2023-05-25T08:42:16.251Z,16.73
2023-05-25T08:44:42.753Z,16.97
2023-05-25T08:47:11.810Z,16.56
2023-05-25T08:49:39.420Z,16.76
2023-05-25T08:52:10.552Z,17.21
2023-05-25T08:54:37.937Z,16.66
2023-05-25T08:57:15.120Z,17.15
2023-05-25T08:59:47.875Z,17.63
2023-05-25T09:02:22.499Z,17.36
2023-05-25T09:04:49.330Z,17.60
2023-05-25T09:07:16.287Z,17.19
2023-05-25T09:09:43.477Z,16.99
2023-05-25T09:12:10.906Z,16.79
2023-05-25T09:14:38.028Z,17.09
2023-05-25T09:17:04.734Z,17.03
2023-05-25T09:19:31.163Z,17.49
2023-05-25T09:22:13.470Z,17.78
2023-05-25T09:24:41.456Z,17.92
2023-05-25T09:27:11.764Z,17.87
2023-05-25T09:29:38.437Z,17.36
2023-05-25T09:32:06.777Z,17.77
2023-05-25T09:34:36.233Z,17.50
2023-05-25T09:37:04.493Z,17.09
2023-05-25T09:39:31.145Z,16.85
2023-05-25T09:41:57.860Z,17.00
2023-05-25T09:44:24.286Z,17.44
2023-05-25T09:46:51.052Z,17.26
2023-05-25T09:49:17.500Z,17.52
2023-05-25T09:51:44.053Z,17.81
2023-05-25T09:54:11.207Z,17.28
2023-05-25T09:56:37.700Z,17.18
2023-05-25T09:59:04.150Z,17.72
2023-05-25T10:01:32.611Z,17.44
2023-05-25T10:04:10.296Z,18.20
2023-05-25T10:06:38.971Z,18.12
2023-05-25T10:09:06.879Z,18.44
2023-05-25T10:11:36.276Z,17.64
2023-05-25T10:14:07.047Z,18.10
2023-05-25T10:16:34.511Z,18.10
2023-05-25T10:19:16.137Z,17.97
2023-05-25T10:21:45.647Z,17.87
2023-05-25T10:24:38.332Z,17.98
2023-05-25T10:27:22.516Z,17.69
2023-05-25T10:29:55.916Z,17.91
2023-05-25T10:32:23.030Z,17.88
2023-05-25T10:34:52.260Z,17.80
2023-05-25T10:37:18.796Z,17.65
2023-05-25T10:39:45.986Z,18.28
2023-05-25T10:42:13.181Z,18.49
2023-05-25T10:44:43.004Z,18.47
2023-05-25T10:47:10.436Z,18.17
2023-05-25T10:49:53.564Z,19.12
2023-05-25T10:52:20.412Z,18.79
2023-05-25T10:54:48.523Z,18.40
2023-05-25T10:57:20.655Z,18.97
2023-05-25T10:59:52.145Z,18.27
2023-05-25T11:02:24.812Z,19.00
2023-05-25T11:05:26.184Z,18.42
2023-05-25T11:07:59.653Z,18.52
2023-05-25T11:10:38.209Z,18.22
2023-05-25T11:13:32.107Z,18.56
2023-05-25T11:16:14.787Z,18.11
2023-05-25T11:18:41.973Z,18.30
2023-05-25T11:21:22.301Z,18.21
2023-05-25T11:24:16.367Z,17.67
2023-05-25T11:27:05.948Z,18.61
2023-05-25T11:29:33.068Z,18.61
2023-05-25T11:32:00.678Z,19.43
2023-05-25T11:34:28.121Z,19.73
2023-05-25T11:36:58.435Z,19.20
2023-05-25T11:39:24.879Z,19.34
2023-05-25T11:41:55.994Z,18.95
2023-05-25T11:44:29.606Z,19.42
2023-05-25T11:46:57.482Z,19.95
2023-05-25T11:49:25.882Z,19.14
2023-05-25T11:51:53.517Z,19.73
2023-05-25T11:54:28.133Z,19.16
2023-05-25T11:56:59.070Z,20.19
2023-05-25T11:59:28.217Z,19.49
2023-05-25T12:02:01.080Z,18.34
2023-05-25T12:04:28.921Z,18.72
2023-05-25T12:07:06.780Z,18.94
2023-05-25T12:09:33.995Z,18.64
2023-05-25T12:12:02.840Z,18.03
2023-05-25T12:14:29.941Z,18.78
2023-05-25T12:16:57.698Z,18.81
2023-05-25T12:19:24.270Z,19.41
2023-05-25T12:21:51.802Z,18.70
2023-05-25T12:24:18.910Z,18.64
2023-05-25T12:26:58.793Z,19.20
2023-05-25T12:29:26.342Z,19.16
2023-05-25T12:31:52.756Z,18.34
2023-05-25T12:34:20.163Z,19.27
2023-05-25T12:36:49.871Z,19.03
2023-05-25T12:39:29.359Z,18.46
2023-05-25T12:42:00.001Z,19.03
2023-05-25T12:44:31.340Z,19.66
2023-05-25T12:47:11.605Z,20.21
2023-05-25T12:49:38.796Z,19.36
2023-05-25T12:52:06.125Z,19.77
2023-05-25T12:54:44.014Z,19.98
2023-05-25T12:57:13.094Z,20.44
2023-05-25T12:59:44.966Z,19.92
2023-05-25T13:02:13.008Z,19.16
2023-05-25T13:04:41.093Z,18.64
2023-05-25T13:07:10.945Z,19.59
2023-05-25T13:09:37.661Z,20.81
2023-05-25T13:12:04.507Z,21.19
2023-05-25T13:14:31.040Z,21.03
2023-05-25T13:16:57.678Z,21.00
2023-05-25T13:19:25.703Z,20.79
2023-05-25T13:21:52.782Z,20.41
2023-05-25T13:24:22.435Z,20.15
2023-05-25T13:26:51.106Z,20.61
2023-05-25T13:29:17.998Z,20.22
2023-05-25T13:31:44.520Z,22.88
2023-05-25T13:34:11.017Z,24.13
2023-05-25T13:36:37.448Z,25.86
2023-05-25T13:39:05.278Z,25.60
2023-05-25T13:41:31.808Z,26.90
2023-05-25T13:43:58.335Z,27.71
2023-05-25T13:46:34.017Z,27.94
2023-05-25T13:49:02.570Z,26.93
2023-05-25T13:51:28.981Z,27.90
2023-05-25T13:53:55.408Z,26.50
2023-05-25T13:56:22.339Z,27.13
2023-05-25T13:58:48.804Z,29.85
2023-05-25T14:01:15.251Z,27.21
2023-05-25T14:03:41.811Z,24.19
2023-05-25T14:06:08.315Z,24.10
2023-05-25T14:08:34.731Z,27.93
2023-05-25T14:11:01.235Z,23.48
2023-05-25T14:13:27.627Z,27.42
2023-05-25T14:15:54.040Z,28.44
2023-05-25T14:18:20.496Z,28.96
2023-05-25T14:20:47.335Z,27.27
2023-05-25T14:23:15.848Z,31.51
2023-05-25T14:25:44.357Z,31.28
2023-05-25T14:28:10.936Z,31.44
2023-05-25T14:30:37.343Z,32.48
2023-05-25T14:33:03.899Z,23.68
2023-05-25T14:35:30.330Z,28.00
2023-05-25T14:37:56.748Z,30.44
2023-05-25T14:40:23.150Z,32.49
2023-05-25T14:42:49.757Z,28.35
2023-05-25T14:45:16.376Z,29.15
2023-05-25T14:47:42.982Z,28.25
2023-05-25T14:50:09.615Z,29.19
2023-05-25T14:52:37.283Z,27.21
2023-05-25T14:55:03.844Z,29.57
2023-05-25T14:57:30.367Z,32.45
2023-05-25T14:59:57.027Z,28.47
2023-05-25T15:02:23.482Z,28.83
2023-05-25T15:04:49.962Z,29.02
2023-05-25T15:07:16.373Z,30.59
2023-05-25T15:09:43.164Z,30.27
2023-05-25T15:12:09.697Z,33.38
2023-05-25T15:14:41.140Z,34.08
2023-05-25T15:17:10.736Z,32.23
2023-05-25T15:19:37.610Z,33.02
2023-05-25T15:22:04.211Z,32.19
2023-05-25T15:24:30.694Z,30.44
2023-05-25T15:26:57.098Z,30.25
2023-05-25T15:29:23.576Z,31.40
2023-05-25T15:31:53.707Z,29.44
2023-05-25T15:34:20.556Z,31.01
2023-05-25T15:36:46.999Z,28.69
2023-05-25T15:39:14.666Z,29.23
2023-05-25T15:41:41.728Z,30.18
2023-05-25T15:44:12.231Z,28.33
2023-05-25T15:46:40.170Z,30.62
2023-05-25T15:49:11.169Z,28.57
2023-05-25T15:51:41.905Z,28.27
2023-05-25T15:54:11.949Z,30.99
2023-05-25T15:56:39.989Z,32.87
2023-05-25T15:59:06.767Z,23.85
2023-05-25T16:01:36.828Z,28.92
2023-05-25T16:04:04.164Z,26.67
2023-05-25T16:06:31.973Z,24.10
2023-05-25T16:08:58.824Z,27.27
2023-05-25T16:11:26.982Z,31.09
2023-05-25T16:13:53.994Z,29.50
2023-05-25T16:16:20.736Z,30.03
2023-05-25T16:18:47.331Z,30.53
2023-05-25T16:21:13.839Z,26.90
2023-05-25T16:23:40.300Z,28.81
2023-05-25T16:26:09.938Z,30.21
2023-05-25T16:28:37.458Z,28.15
2023-05-25T16:31:05.510Z,28.74
2023-05-25T16:33:32.791Z,29.01
2023-05-25T16:35:59.995Z,30.24
2023-05-25T16:38:26.507Z,30.41
2023-05-25T16:40:52.960Z,28.88
2023-05-25T16:43:19.578Z,28.64
2023-05-25T16:45:46.243Z,28.04
2023-05-25T16:48:12.927Z,28.69
2023-05-25T16:50:39.377Z,29.19
2023-05-25T16:53:06.227Z,28.19
2023-05-25T16:55:33.619Z,26.77
2023-05-25T16:58:00.097Z,29.26
2023-05-25T17:00:26.572Z,24.69
2023-05-25T17:02:53.135Z,22.98
2023-05-25T17:05:19.683Z,21.23
2023-05-25T17:07:46.256Z,22.45
2023-05-25T17:10:12.728Z,20.97
2023-05-25T17:12:39.143Z,20.98
2023-05-25T17:15:05.970Z,21.08
2023-05-25T17:17:32.403Z,21.11
2023-05-25T17:19:58.937Z,22.28
2023-05-25T17:22:25.400Z,22.79
2023-05-25T17:24:51.826Z,23.15
2023-05-25T17:27:18.581Z,22.98
2023-05-25T17:29:44.986Z,24.39
2023-05-25T17:32:11.475Z,22.93
2023-05-25T17:34:38.016Z,23.92
2023-05-25T17:37:04.492Z,23.93
2023-05-25T17:39:30.910Z,23.78
2023-05-25T17:41:57.889Z,22.61
2023-05-25T17:44:25.340Z,22.12
2023-05-25T17:46:51.764Z,21.78
2023-05-25T17:49:18.223Z,19.95
2023-05-25T17:51:44.628Z,20.52
2023-05-25T17:54:15.296Z,22.27
2023-05-25T17:56:42.099Z,21.81
2023-05-25T17:59:09.551Z,22.09
2023-05-25T18:01:36.054Z,21.29
2023-05-25T18:04:02.695Z,20.94
2023-05-25T18:06:29.487Z,20.72
2023-05-25T18:08:56.104Z,19.55
2023-05-25T18:11:23.331Z,19.02
2023-05-25T18:13:50.272Z,19.56
2023-05-25T18:16:16.897Z,20.72
2023-05-25T18:18:43.361Z,19.99
2023-05-25T18:21:09.786Z,19.29
2023-05-25T18:23:36.191Z,20.12
2023-05-25T18:26:04.433Z,19.35
2023-05-25T18:28:31.454Z,19.18
2023-05-25T18:30:58.024Z,18.94
2023-05-25T18:33:24.490Z,18.60
2023-05-25T18:35:50.934Z,18.10
2023-05-25T18:38:17.359Z,17.85
2023-05-25T18:40:43.798Z,18.05
2023-05-25T18:43:10.303Z,17.91
2023-05-25T18:45:36.731Z,17.94
2023-05-25T18:48:09.191Z,17.74
2023-05-25T18:50:37.611Z,17.67
2023-05-25T18:53:09.873Z,17.21
2023-05-25T18:55:37.310Z,17.09
2023-05-25T18:58:03.994Z,17.17
2023-05-25T19:00:30.902Z,17.32
2023-05-25T19:02:57.443Z,17.23
2023-05-25T19:05:24.444Z,17.21
2023-05-25T19:07:59.003Z,17.06
2023-05-25T19:10:25.771Z,16.96
2023-05-25T19:12:52.231Z,16.99
2023-05-25T19:15:18.670Z,16.83
2023-05-25T19:17:46.594Z,16.85
2023-05-25T19:20:13.202Z,16.74
2023-05-25T19:22:40.327Z,16.70
2023-05-25T19:25:07.278Z,16.74
2023-05-25T19:27:33.734Z,16.79
2023-05-25T19:30:00.353Z,16.62
2023-05-25T19:32:26.810Z,16.52
2023-05-25T19:34:53.249Z,16.31
2023-05-25T19:37:19.670Z,16.27
2023-05-25T19:39:46.081Z,16.35
2023-05-25T19:42:12.488Z,16.22
2023-05-25T19:44:40.565Z,16.19
2023-05-25T19:47:07.409Z,16.36
2023-05-25T19:49:33.851Z,16.35
2023-05-25T19:52:00.265Z,16.14
2023-05-25T19:54:26.668Z,16.02
2023-05-25T19:56:54.051Z,15.95
2023-05-25T19:59:21.686Z,15.86
2023-05-25T20:01:48.511Z,15.85
2023-05-25T20:04:15.090Z,15.85
2023-05-25T20:06:41.506Z,15.93
2023-05-25T20:09:12.328Z,15.98
2023-05-25T20:11:38.783Z,15.85
2023-05-25T20:14:07.373Z,15.98
2023-05-25T20:16:33.951Z,15.64
2023-05-25T20:19:00.522Z,15.76
2023-05-25T20:21:26.972Z,15.58
2023-05-25T20:23:53.416Z,15.58
2023-05-25T20:26:19.835Z,15.47
2023-05-25T20:28:46.266Z,15.57
2023-05-25T20:31:12.717Z,15.61
2023-05-25T20:33:39.108Z,15.64
2023-05-25T20:36:05.751Z,15.38
2023-05-25T20:38:32.164Z,15.49
2023-05-25T20:40:58.624Z,15.49
2023-05-25T20:43:25.048Z,15.41
2023-05-25T20:45:51.512Z,15.37
2023-05-25T20:48:18.083Z,15.19
2023-05-25T20:50:44.518Z,15.32
2023-05-25T20:53:10.996Z,15.16
2023-05-25T20:55:37.496Z,15.20
2023-05-25T20:58:03.889Z,15.06
2023-05-25T21:00:30.560Z,15.10
2023-05-25T21:02:57.087Z,15.19
2023-05-25T21:05:23.581Z,15.10
2023-05-25T21:07:51.384Z,14.98
2023-05-25T21:10:17.861Z,15.15
2023-05-25T21:12:44.304Z,14.97
2023-05-25T21:15:10.746Z,14.96
2023-05-25T21:17:37.215Z,14.81
2023-05-25T21:20:03.989Z,14.80
2023-05-25T21:22:30.521Z,15.02
2023-05-25T21:24:57.204Z,15.00
2023-05-25T21:27:23.612Z,14.78
2023-05-25T21:29:50.080Z,14.76
2023-05-25T21:32:16.491Z,14.79
2023-05-25T21:34:42.891Z,14.72
2023-05-25T21:37:09.304Z,14.88
2023-05-25T21:39:35.750Z,14.83
2023-05-25T21:42:02.387Z,14.76
2023-05-25T21:44:28.814Z,14.87
2023-05-25T21:46:55.323Z,14.71
2023-05-25T21:49:21.770Z,14.52
2023-05-25T21:51:48.179Z,14.57
2023-05-25T21:54:14.593Z,14.70
2023-05-25T21:56:41.014Z,14.49
2023-05-25T21:59:07.479Z,14.46
2023-05-25T22:01:34.085Z,14.27
2023-05-25T22:04:00.653Z,14.45
2023-05-25T22:06:27.065Z,14.57
2023-05-25T22:08:53.520Z,14.41
2023-05-25T22:11:22.151Z,14.41
2023-05-25T22:13:48.636Z,14.33
2023-05-25T22:16:15.125Z,14.42
2023-05-25T22:18:41.559Z,14.56
2023-05-25T22:21:07.969Z,14.26
2023-05-25T22:23:34.644Z,14.31
2023-05-25T22:26:01.113Z,14.05
2023-05-25T22:28:27.514Z,14.09
2023-05-25T22:30:53.985Z,13.92
2023-05-25T22:33:20.451Z,13.97
2023-05-25T22:35:47.030Z,14.01
2023-05-25T22:38:13.631Z,13.80
2023-05-25T22:40:40.049Z,13.86
2023-05-25T22:43:12.667Z,13.91
2023-05-25T22:45:39.871Z,13.64
2023-05-25T22:48:07.076Z,13.86
2023-05-25T22:50:33.493Z,13.48
2023-05-25T22:52:59.942Z,13.70
2023-05-25T22:55:26.376Z,13.63
2023-05-25T22:57:52.786Z,13.47
2023-05-25T23:00:19.259Z,13.41
2023-05-25T23:02:45.756Z,13.53
2023-05-25T23:05:12.274Z,13.64
2023-05-25T23:07:38.760Z,13.37
2023-05-25T23:10:05.644Z,13.34
2023-05-25T23:12:32.059Z,13.31
2023-05-25T23:15:00.654Z,13.06
2023-05-25T23:17:27.096Z,13.21
2023-05-25T23:19:53.632Z,13.00
2023-05-25T23:22:20.519Z,13.15
2023-05-25T23:24:46.968Z,12.97
2023-05-25T23:27:13.401Z,12.95
2023-05-25T23:29:39.832Z,13.12
2023-05-25T23:32:06.834Z,12.84
2023-05-25T23:34:33.322Z,12.91
2023-05-25T23:36:59.719Z,12.78
2023-05-25T23:39:26.332Z,12.98
2023-05-25T23:41:52.785Z,12.79
2023-05-25T23:44:19.231Z,12.70
2023-05-25T23:46:45.665Z,12.80
2023-05-25T23:49:12.068Z,12.78
2023-05-25T23:51:38.613Z,12.67
2023-05-25T23:54:05.034Z,12.83
2023-05-25T23:56:32.614Z,12.70
2023-05-25T23:58:59.064Z,12.26
